^^
Station Historical Data
Daily Summary for February 3, 2017 Units:  English    Metric   Both
« Previous Day
Next Day »
Daily Weekly Monthly Yearly Custom
  High: Low: Average:
Temperature: 31.0 °F 20.8 °F 26 °F
Dew Point: 14.6 °F 6.3 °F 11.9 °F
Humidity: 67 % 44 % 55 %
Wind Speed: 16.6 mph 0.0 mph 5.1 mph
Wind Gust: 24.2 mph - -
Wind:- - West
Pressure: 30.30 in 30.15 in -
Precipitation: 0.00 in    
Historical Graphs
 
 
Tabular Data for February 3, 2017
Time Temperature Dew Point Pressure Wind Wind Speed Wind Gust Humidity Rainfall Rate (Hourly) solar Conditions
00:02 28.5 °F 9.3 °F 30.25 in West 1.7 mph 3.5 mph 44 % 0.00 in 0.0 W/m2 CLR
00:07 28.2 °F 9.5 °F 30.25 in West 2.2 mph 3.0 mph 45 % 0.00 in 0.0 W/m2 CLR
00:12 28.1 °F 9.5 °F 30.26 in West 3.1 mph 4.0 mph 45 % 0.00 in 0.0 W/m2 CLR
00:17 28.1 °F 9.5 °F 30.26 in West 3.7 mph 5.8 mph 45 % 0.00 in 0.0 W/m2 CLR
00:22 28.0 °F 9.4 °F 30.26 in WSW 2.0 mph 3.5 mph 45 % 0.00 in 0.0 W/m2 CLR
00:27 27.8 °F 9.7 °F 30.26 in West 1.9 mph 3.5 mph 46 % 0.00 in 0.0 W/m2 CLR
00:32 27.5 °F 9.9 °F 30.26 in West 1.9 mph 3.5 mph 47 % 0.00 in 0.0 W/m2 CLR
00:37 27.3 °F 9.7 °F 30.26 in West 0.5 mph 1.2 mph 47 % 0.00 in 0.0 W/m2 CLR
00:42 27.1 °F 10.0 °F 30.26 in West 2.5 mph 5.8 mph 48 % 0.00 in 0.0 W/m2 CLR
00:48 27.1 °F 9.5 °F 30.26 in West 1.0 mph 3.5 mph 47 % 0.00 in 0.0 W/m2 CLR
00:53 27.1 °F 10.0 °F 30.26 in WNW 1.4 mph 3.5 mph 48 % 0.00 in 0.0 W/m2 CLR
00:58 27.1 °F 9.5 °F 30.26 in West 3.2 mph 5.8 mph 47 % 0.00 in 0.0 W/m2 CLR
01:03 27.1 °F 10.0 °F 30.26 in West 2.0 mph 3.5 mph 48 % 0.00 in 0.0 W/m2 CLR
01:08 26.5 °F 9.9 °F 30.26 in Calm     49 % 0.00 in 0.0 W/m2 CLR
01:13 26.1 °F 10.0 °F 30.26 in Calm     50 % 0.00 in 0.0 W/m2 CLR
01:18 25.8 °F 10.1 °F 30.26 in Calm     51 % 0.00 in 0.0 W/m2 CLR
01:23 25.3 °F 10.1 °F 30.26 in Calm     52 % 0.00 in 0.0 W/m2 CLR
01:28 24.9 °F 10.2 °F 30.25 in West 0.2 mph 2.0 mph 53 % 0.00 in 0.0 W/m2 CLR
01:33 25.1 °F 10.8 °F 30.25 in West 0.1 mph 1.2 mph 54 % 0.00 in 0.0 W/m2 CLR
01:38 24.9 °F 11.0 °F 30.25 in Calm   1.2 mph 55 % 0.00 in 0.0 W/m2 CLR
01:43 25.2 °F 10.9 °F 30.26 in WNW 0.3 mph 1.2 mph 54 % 0.00 in 0.0 W/m2 CLR
01:48 25.4 °F 10.6 °F 30.26 in WNW 1.0 mph 3.5 mph 53 % 0.00 in 0.0 W/m2 CLR
01:53 25.3 °F 11.0 °F 30.26 in WNW 0.1 mph 1.2 mph 54 % 0.00 in 0.0 W/m2 CLR
01:58 25.0 °F 10.7 °F 30.26 in Calm     54 % 0.00 in 0.0 W/m2 CLR
02:03 24.6 °F 10.7 °F 30.26 in Calm     55 % 0.00 in 0.0 W/m2 CLR
02:08 24.8 °F 10.9 °F 30.26 in WNW 0.8 mph 2.3 mph 55 % 0.00 in 0.0 W/m2 CLR
02:13 25.1 °F 10.8 °F 30.26 in WNW 2.8 mph 3.5 mph 54 % 0.00 in 0.0 W/m2 CLR
02:18 25.2 °F 10.4 °F 30.26 in NW 2.6 mph 4.6 mph 53 % 0.00 in 0.0 W/m2 CLR
02:23 25.5 °F 10.7 °F 30.26 in WNW 3.1 mph 4.6 mph 53 % 0.00 in 0.0 W/m2 CLR
02:28 25.8 °F 10.6 °F 30.26 in WNW 2.2 mph 4.6 mph 52 % 0.00 in 0.0 W/m2 CLR
02:33 26.0 °F 10.3 °F 30.26 in WNW 1.6 mph 3.5 mph 51 % 0.00 in 0.0 W/m2 CLR
02:38 25.8 °F 10.6 °F 30.26 in WNW 2.0 mph 3.5 mph 52 % 0.00 in 0.0 W/m2 CLR
02:43 25.8 °F 10.6 °F 30.26 in WNW 1.4 mph 3.5 mph 52 % 0.00 in 0.0 W/m2 CLR
02:48 25.7 °F 10.5 °F 30.26 in Calm     52 % 0.00 in 0.0 W/m2 CLR
02:53 25.3 °F 10.5 °F 30.26 in Calm     53 % 0.00 in 0.0 W/m2 CLR
02:58 24.8 °F 10.5 °F 30.26 in Calm     54 % 0.00 in 0.0 W/m2 CLR
03:03 24.3 °F 10.8 °F 30.26 in Calm     56 % 0.00 in 0.0 W/m2 CLR
03:08 23.8 °F 10.8 °F 30.25 in Calm     57 % 0.00 in 0.0 W/m2 CLR
03:13 23.3 °F 10.7 °F 30.25 in Calm     58 % 0.00 in 0.0 W/m2 CLR
03:18 23.0 °F 10.8 °F 30.25 in Calm     59 % 0.00 in 0.0 W/m2 CLR
03:23 23.0 °F 11.2 °F 30.25 in Calm     60 % 0.00 in 0.0 W/m2 CLR
03:28 23.0 °F 11.2 °F 30.25 in Calm     60 % 0.00 in 0.0 W/m2 CLR
03:33 22.9 °F 11.4 °F 30.25 in Calm     61 % 0.00 in 0.0 W/m2 CLR
03:38 22.6 °F 11.5 °F 30.25 in Calm     62 % 0.00 in 0.0 W/m2 CLR
03:43 22.4 °F 11.3 °F 30.25 in Calm     62 % 0.00 in 0.0 W/m2 CLR
03:48 22.3 °F 11.2 °F 30.25 in WNW 0.6 mph 2.3 mph 62 % 0.00 in 0.0 W/m2 CLR
03:53 22.2 °F 11.1 °F 30.25 in WNW 1.3 mph 2.3 mph 62 % 0.00 in 0.0 W/m2 CLR
03:58 22.2 °F 11.1 °F 30.25 in WNW 0.9 mph 2.3 mph 62 % 0.00 in 0.0 W/m2 CLR
04:03 22.1 °F 11.1 °F 30.25 in WNW 0.7 mph 2.3 mph 62 % 0.00 in 0.0 W/m2 CLR
04:08 22.2 °F 11.1 °F 30.25 in Calm     62 % 0.00 in 0.0 W/m2 CLR
04:13 21.7 °F 11.0 °F 30.25 in WNW 1.0 mph 2.3 mph 63 % 0.00 in 0.0 W/m2 CLR
04:18 21.1 °F 11.2 °F 30.25 in Calm     65 % 0.00 in 0.0 W/m2 CLR
04:23 20.9 °F 11.3 °F 30.25 in Calm     66 % 0.00 in 0.0 W/m2 CLR
04:28 20.8 °F 11.2 °F 30.26 in Calm     66 % 0.00 in 0.0 W/m2 CLR
04:33 20.9 °F 11.7 °F 30.26 in WNW 1.3 mph 2.3 mph 67 % 0.00 in 0.0 W/m2 CLR
04:38 21.6 °F 12.3 °F 30.25 in WNW 1.4 mph 3.5 mph 67 % 0.00 in 0.0 W/m2 CLR
04:43 22.3 °F 12.3 °F 30.25 in WNW 2.1 mph 3.5 mph 65 % 0.00 in 0.0 W/m2 CLR
04:48 22.7 °F 12.0 °F 30.25 in WNW 0.1 mph 3.5 mph 63 % 0.00 in 0.0 W/m2 CLR
04:53 22.6 °F 11.9 °F 30.25 in WNW 0.2 mph 1.2 mph 63 % 0.00 in 0.0 W/m2 CLR
04:58 22.5 °F 11.8 °F 30.25 in WNW 2.3 mph 3.5 mph 63 % 0.00 in 0.0 W/m2 CLR
05:03 22.8 °F 11.7 °F 30.26 in WNW 1.9 mph 3.5 mph 62 % 0.00 in 0.0 W/m2 CLR
05:08 22.9 °F 11.8 °F 30.26 in WNW 2.8 mph 3.5 mph 62 % 0.00 in 0.0 W/m2 CLR
05:13 23.0 °F 11.9 °F 30.26 in WNW 1.6 mph 3.5 mph 62 % 0.00 in 0.0 W/m2 CLR
05:18 22.8 °F 11.7 °F 30.25 in WNW 1.6 mph 3.5 mph 62 % 0.00 in 0.0 W/m2 CLR
05:23 22.9 °F 11.8 °F 30.25 in WNW 2.8 mph 5.8 mph 62 % 0.00 in 0.0 W/m2 CLR
05:28 23.0 °F 11.9 °F 30.25 in WNW 2.2 mph 4.6 mph 62 % 0.00 in 0.0 W/m2 CLR
05:33 23.1 °F 12.0 °F 30.25 in WNW 3.0 mph 3.5 mph 62 % 0.00 in 0.0 W/m2 CLR
05:38 23.1 °F 12.0 °F 30.25 in WNW 1.1 mph 3.5 mph 62 % 0.00 in 0.0 W/m2 CLR
05:43 23.0 °F 11.9 °F 30.25 in WNW 2.8 mph 3.5 mph 62 % 0.00 in 0.0 W/m2 CLR
05:48 22.9 °F 11.8 °F 30.26 in Calm     62 % 0.00 in 0.0 W/m2 CLR
05:53 22.7 °F 12.0 °F 30.26 in Calm     63 % 0.00 in 0.0 W/m2 CLR
05:58 22.6 °F 11.9 °F 30.26 in Calm     63 % 0.00 in 0.0 W/m2 CLR
06:03 22.5 °F 11.8 °F 30.26 in NW 0.1 mph 2.3 mph 63 % 0.00 in 0.0 W/m2 CLR
06:08 22.4 °F 12.1 °F 30.26 in NW 0.7 mph 2.3 mph 64 % 0.00 in 0.0 W/m2 CLR
06:13 22.2 °F 11.9 °F 30.26 in NW 0.7 mph 3.5 mph 64 % 0.00 in 0.0 W/m2 CLR
06:19 22.2 °F 11.9 °F 30.26 in NW 1.9 mph 3.5 mph 64 % 0.00 in 0.0 W/m2 CLR
06:24 22.2 °F 11.9 °F 30.26 in NW 0.9 mph   64 % 0.00 in 0.0 W/m2 CLR
06:29 22.3 °F 12.0 °F 30.26 in WNW 1.2 mph 2.3 mph 64 % 0.00 in 0.0 W/m2 CLR
06:34 22.4 °F 12.1 °F 30.26 in WNW 1.2 mph 2.3 mph 64 % 0.00 in 0.0 W/m2 CLR
06:39 22.5 °F 12.1 °F 30.26 in WNW 2.3 mph 3.5 mph 64 % 0.00 in 0.0 W/m2 CLR
06:44 22.6 °F 12.2 °F 30.26 in WNW 1.9 mph 3.5 mph 64 % 0.00 in 0.0 W/m2 CLR
06:49 22.5 °F 12.1 °F 30.26 in WNW 2.1 mph 3.5 mph 64 % 0.00 in 0.0 W/m2 CLR
06:54 22.5 °F 12.1 °F 30.26 in NW 1.2 mph 3.5 mph 64 % 0.00 in 0.0 W/m2 CLR
06:59 22.4 °F 12.1 °F 30.26 in WNW 1.5 mph 3.5 mph 64 % 0.00 in 0.0 W/m2 CLR
07:04 22.4 °F 12.1 °F 30.26 in WNW 1.8 mph 3.5 mph 64 % 0.00 in 0.0 W/m2 OVC
07:09 22.5 °F 12.1 °F 30.26 in WNW 1.6 mph 3.5 mph 64 % 0.00 in 0.0 W/m2 OVC
07:14 22.6 °F 12.2 °F 30.27 in WNW 0.4 mph 2.3 mph 64 % 0.00 in 0.0 W/m2 OVC
07:19 22.7 °F 12.3 °F 30.27 in WNW 1.3 mph 3.5 mph 64 % 0.00 in 7.0 W/m2 OVC
07:24 22.7 °F 12.3 °F 30.27 in Calm     64 % 0.00 in 12.0 W/m2 OVC
07:29 22.6 °F 12.6 °F 30.27 in Calm     65 % 0.00 in 16.0 W/m2 CLR
07:34 22.6 °F 12.6 °F 30.27 in West 1.8 mph 3.5 mph 65 % 0.00 in 19.0 W/m2 CLR
07:39 22.5 °F 12.5 °F 30.27 in West 2.1 mph 3.5 mph 65 % 0.00 in 23.0 W/m2 CLR
07:44 22.4 °F 12.4 °F 30.28 in West 0.4 mph 2.0 mph 65 % 0.00 in 30.0 W/m2 CLR
07:49 22.5 °F 12.5 °F 30.28 in West 1.2 mph 3.5 mph 65 % 0.00 in 42.0 W/m2 CLR
07:54 22.6 °F 12.6 °F 30.28 in West 1.8 mph 3.5 mph 65 % 0.00 in 49.0 W/m2 CLR
07:59 22.8 °F 12.8 °F 30.28 in Calm     65 % 0.00 in 54.0 W/m2 CLR
08:04 22.9 °F 12.9 °F 30.28 in Calm     65 % 0.00 in 65.0 W/m2 CLR
08:09 22.9 °F 12.9 °F 30.29 in WSW 2.6 mph 3.5 mph 65 % 0.00 in 58.0 W/m2 FEW
08:14 23.1 °F 13.1 °F 30.29 in WSW 0.9 mph 2.3 mph 65 % 0.00 in 77.0 W/m2 FEW
08:19 23.2 °F 13.2 °F 30.29 in WSW 1.4 mph 3.5 mph 65 % 0.00 in 79.0 W/m2 FEW
08:24 23.2 °F 12.8 °F 30.29 in WSW 2.4 mph 4.0 mph 64 % 0.00 in 74.0 W/m2 SCT
08:29 23.3 °F 12.9 °F 30.29 in WSW 0.7 mph 2.3 mph 64 % 0.00 in 83.0 W/m2 SCT
08:34 23.6 °F 13.2 °F 30.29 in WSW 2.0 mph 5.0 mph 64 % 0.00 in 104.0 W/m2 SCT
08:44 23.8 °F 13.7 °F 30.29 in WSW 3.0 mph 3.5 mph 65 % 0.00 in 109.0 W/m2 CLR
08:49 24.0 °F 13.6 °F 30.29 in WSW 2.8 mph 4.0 mph 64 % 0.00 in 97.0 W/m2 SCT
08:54 24.0 °F 13.6 °F 30.29 in WSW 3.5 mph 5.8 mph 64 % 0.00 in 84.0 W/m2 BKN
08:59 24.1 °F 13.7 °F 30.28 in West 1.6 mph 5.8 mph 64 % 0.00 in 97.0 W/m2 BKN
09:04 24.1 °F 13.3 °F 30.28 in WSW 2.7 mph 4.6 mph 63 % 0.00 in 105.0 W/m2 BKN
09:09 24.4 °F 14.0 °F 30.28 in West 1.1 mph 3.5 mph 64 % 0.00 in 137.0 W/m2 SCT
09:14 24.5 °F 13.7 °F 30.28 in WSW 3.7 mph 8.1 mph 63 % 0.00 in 120.0 W/m2 SCT
09:19 24.6 °F 13.8 °F 30.29 in West 4.3 mph 9.2 mph 63 % 0.00 in 125.0 W/m2 SCT
09:24 24.7 °F 13.9 °F 30.29 in West 6.5 mph 8.1 mph 63 % 0.00 in 151.0 W/m2 SCT
09:29 24.8 °F 14.0 °F 30.28 in West 5.8 mph 8.1 mph 63 % 0.00 in 165.0 W/m2 SCT
09:34 24.8 °F 14.0 °F 30.28 in WSW 3.8 mph 7.0 mph 63 % 0.00 in 178.0 W/m2 SCT
09:39 25.1 °F 14.3 °F 30.27 in West 7.4 mph 9.2 mph 63 % 0.00 in 174.0 W/m2 SCT
09:44 25.4 °F 14.2 °F 30.28 in WNW 5.5 mph 8.0 mph 62 % 0.00 in 193.0 W/m2 SCT
09:49 25.4 °F 14.2 °F 30.28 in West 6.6 mph 11.5 mph 62 % 0.00 in 179.0 W/m2 SCT
09:54 25.3 °F 14.1 °F 30.28 in West 6.0 mph 11.5 mph 62 % 0.00 in 121.0 W/m2 BKN
09:59 25.4 °F 14.2 °F 30.29 in West 3.1 mph 6.9 mph 62 % 0.00 in 141.0 W/m2 BKN
10:05 25.5 °F 13.9 °F 30.29 in SW 9.7 mph 9.7 mph 61 % 0.00 in 148.0 W/m2 BKN
10:10 25.5 °F 13.9 °F 30.28 in West 5.5 mph 16.1 mph 61 % 0.00 in 158.0 W/m2 BKN
10:15 25.6 °F 13.6 °F 30.28 in WSW 10.4 mph 16.1 mph 60 % 0.00 in 183.0 W/m2 SCT
10:20 25.7 °F 13.7 °F 30.28 in WSW 8.0 mph 13.0 mph 60 % 0.00 in 225.0 W/m2 SCT
10:25 25.8 °F 13.8 °F 30.28 in West 9.0 mph 17.0 mph 60 % 0.00 in 211.0 W/m2 SCT
10:30 26.0 °F 13.6 °F 30.27 in West 7.5 mph 11.5 mph 59 % 0.00 in 227.0 W/m2 SCT
10:35 26.0 °F 13.6 °F 30.27 in West 8.0 mph 16.0 mph 59 % 0.00 in 232.0 W/m2 SCT
10:40 26.1 °F 13.7 °F 30.27 in West 8.0 mph 13.0 mph 59 % 0.00 in 227.0 W/m2 SCT
10:45 26.1 °F 13.7 °F 30.27 in West 5.6 mph 10.4 mph 59 % 0.00 in 227.0 W/m2 SCT
10:50 26.5 °F 14.1 °F 30.27 in West 7.0 mph 12.0 mph 59 % 0.00 in 232.0 W/m2 SCT
10:55 26.4 °F 13.6 °F 30.26 in West 8.0 mph 12.0 mph 58 % 0.00 in 236.0 W/m2 SCT
11:00 26.4 °F 13.6 °F 30.26 in WSW 5.7 mph 11.5 mph 58 % 0.00 in 258.0 W/m2 SCT
11:05 26.4 °F 13.6 °F 30.26 in SW 6.4 mph 13.8 mph 58 % 0.00 in 255.0 W/m2 SCT
11:10 26.7 °F 13.9 °F 30.26 in WSW 6.7 mph 10.4 mph 58 % 0.00 in 285.0 W/m2 SCT
11:15 26.8 °F 13.6 °F 30.25 in WNW 9.8 mph 11.5 mph 57 % 0.00 in 295.0 W/m2 SCT
11:20 26.8 °F 13.6 °F 30.26 in West 8.0 mph 14.0 mph 57 % 0.00 in 311.0 W/m2 SCT
11:25 26.9 °F 13.3 °F 30.25 in WNW 6.9 mph 16.1 mph 56 % 0.00 in 308.0 W/m2 SCT
11:30 27.1 °F 13.5 °F 30.25 in WNW 6.8 mph 16.1 mph 56 % 0.00 in 362.0 W/m2 FEW
11:35 27.2 °F 13.1 °F 30.25 in West 10.0 mph 17.0 mph 55 % 0.00 in 334.0 W/m2 SCT
11:40 27.3 °F 13.7 °F 30.25 in West 8.0 mph 15.0 mph 56 % 0.00 in 308.0 W/m2 SCT
11:45 27.3 °F 13.2 °F 30.24 in WSW 6.6 mph 11.5 mph 55 % 0.00 in 288.0 W/m2 SCT
11:50 27.5 °F 13.0 °F 30.24 in WNW 9.8 mph 14.0 mph 54 % 0.00 in 288.0 W/m2 SCT
11:55 27.6 °F 13.1 °F 30.23 in WNW 11.7 mph 16.1 mph 54 % 0.00 in 264.0 W/m2 SCT
12:00 27.5 °F 13.0 °F 30.23 in WNW 11.0 mph 18.0 mph 54 % 0.00 in 234.0 W/m2 SCT
12:05 27.4 °F 12.9 °F 30.22 in NW 7.9 mph 12.7 mph 54 % 0.00 in 264.0 W/m2 SCT
12:10 27.6 °F 13.1 °F 30.22 in WNW 5.8 mph 11.5 mph 54 % 0.00 in 279.0 W/m2 SCT
12:15 27.9 °F 13.0 °F 30.21 in WSW 11.5 mph 17.3 mph 53 % 0.00 in 323.0 W/m2 SCT
12:20 27.8 °F 12.9 °F 30.21 in WSW 6.8 mph 12.7 mph 53 % 0.00 in 352.0 W/m2 FEW
12:25 28.1 °F 13.1 °F 30.21 in West 8.5 mph 11.5 mph 53 % 0.00 in 336.0 W/m2 FEW
12:30 28.5 °F 13.5 °F 30.20 in West 6.5 mph 9.2 mph 53 % 0.00 in 348.0 W/m2 FEW
12:35 28.3 °F 12.5 °F 30.20 in West 9.7 mph 15.0 mph 51 % 0.00 in 359.0 W/m2 FEW
12:40 28.0 °F 12.6 °F 30.20 in West 8.0 mph 10.0 mph 52 % 0.00 in 374.0 W/m2 FEW
12:45 28.3 °F 12.9 °F 30.19 in West 8.1 mph 11.5 mph 52 % 0.00 in 374.0 W/m2 FEW
12:50 28.5 °F 13.1 °F 30.19 in West 8.8 mph 11.5 mph 52 % 0.00 in 478.0 W/m2 CLR
12:55 28.7 °F 13.3 °F 30.19 in WSW 6.2 mph 11.0 mph 52 % 0.00 in 336.0 W/m2 FEW
13:00 28.6 °F 13.6 °F 30.18 in West 7.0 mph 12.0 mph 53 % 0.00 in 427.0 W/m2 FEW
13:05 29.1 °F 13.2 °F 30.18 in West 6.0 mph 10.4 mph 51 % 0.00 in 406.0 W/m2 FEW
13:10 29.3 °F 12.9 °F 30.18 in West 9.3 mph 15.0 mph 50 % 0.00 in 362.0 W/m2 CLR
13:15 28.9 °F 13.0 °F 30.18 in West 5.5 mph 10.4 mph 51 % 0.00 in 325.0 W/m2 FEW
13:20 29.1 °F 13.2 °F 30.17 in WSW 5.4 mph 9.2 mph 51 % 0.00 in 471.0 W/m2 CLR
13:25 29.4 °F 13.5 °F 30.17 in WSW 7.7 mph 12.7 mph 51 % 0.00 in 499.0 W/m2 CLR
13:30 29.6 °F 13.2 °F 30.17 in WSW 6.6 mph 11.5 mph 50 % 0.00 in 452.0 W/m2 CLR
13:35 29.8 °F 13.4 °F 30.17 in West 8.1 mph 15.0 mph 50 % 0.00 in 336.0 W/m2 FEW
13:40 29.5 °F 13.1 °F 30.17 in West 4.8 mph 9.0 mph 50 % 0.00 in 380.0 W/m2 FEW
13:45 29.8 °F 13.4 °F 30.16 in West 12.1 mph 17.3 mph 50 % 0.00 in 445.0 W/m2 CLR
13:50 29.8 °F 12.9 °F 30.16 in West 8.8 mph 15.0 mph 49 % 0.00 in 417.0 W/m2 CLR
13:55 29.9 °F 12.6 °F 30.16 in West 9.7 mph 13.8 mph 48 % 0.00 in 357.0 W/m2 FEW
14:00 29.9 °F 13.0 °F 30.16 in NW 5.6 mph 6.9 mph 49 % 0.00 in 396.0 W/m2 CLR
14:05 30.6 °F 13.7 °F 30.15 in WNW 8.5 mph 12.7 mph 49 % 0.00 in 369.0 W/m2 CLR
14:10 31.0 °F 13.6 °F 30.15 in WNW 8.0 mph 11.5 mph 48 % 0.00 in 346.0 W/m2 CLR
14:15 30.6 °F 12.7 °F 30.16 in WNW 8.4 mph 13.8 mph 47 % 0.00 in 330.0 W/m2 CLR
14:20 30.5 °F 12.6 °F 30.15 in WNW 7.3 mph 11.0 mph 47 % 0.00 in 246.0 W/m2 FEW
14:25 30.3 °F 12.5 °F 30.16 in West 5.5 mph 10.4 mph 47 % 0.00 in 274.0 W/m2 FEW
14:30 30.1 °F 12.7 °F 30.15 in West 8.7 mph 11.5 mph 48 % 0.00 in 243.0 W/m2 SCT
14:35 29.9 °F 13.5 °F 30.15 in WNW 9.6 mph 12.7 mph 50 % 0.00 in 225.0 W/m2 SCT
14:40 30.5 °F 13.6 °F 30.15 in WNW 10.0 mph 18.4 mph 49 % 0.00 in 214.0 W/m2 SCT
14:45 30.2 °F 13.3 °F 30.15 in West 5.5 mph 8.1 mph 49 % 0.00 in 190.0 W/m2 SCT
14:50 30.1 °F 12.7 °F 30.15 in NW 7.9 mph 10.4 mph 48 % 0.00 in 176.0 W/m2 SCT
14:55 30.2 °F 12.4 °F 30.15 in WNW 9.0 mph 11.5 mph 47 % 0.00 in 158.0 W/m2 SCT
15:03 29.6 °F 11.8 °F 30.16 in WNW 9.4 mph 11.5 mph 47 % 0.00 in 158.0 W/m2 SCT
15:08 29.8 °F 12.5 °F 30.16 in WNW 8.6 mph 12.7 mph 48 % 0.00 in 172.0 W/m2 SCT
15:13 29.9 °F 12.6 °F 30.16 in NW 11.8 mph 16.1 mph 48 % 0.00 in 179.0 W/m2 SCT
15:18 29.8 °F 12.5 °F 30.15 in NW 9.7 mph 13.8 mph 48 % 0.00 in 178.0 W/m2 SCT
15:23 29.7 °F 11.9 °F 30.16 in WSW 8.6 mph 11.5 mph 47 % 0.00 in 158.0 W/m2 SCT
15:28 29.5 °F 11.7 °F 30.16 in West 11.1 mph 15.0 mph 47 % 0.00 in 156.0 W/m2 SCT
15:33 29.3 °F 12.0 °F 30.16 in West 8.7 mph 11.5 mph 48 % 0.00 in 158.0 W/m2 SCT
15:38 29.2 °F 11.9 °F 30.16 in WNW 7.5 mph 11.5 mph 48 % 0.00 in 162.0 W/m2 FEW
15:43 29.2 °F 11.9 °F 30.16 in WSW 7.9 mph 16.1 mph 48 % 0.00 in 192.0 W/m2 CLR
15:48 29.4 °F 12.1 °F 30.16 in WNW 10.1 mph 13.8 mph 48 % 0.00 in 146.0 W/m2 FEW
15:53 29.2 °F 12.4 °F 30.16 in West 10.5 mph 11.5 mph 49 % 0.00 in 107.0 W/m2 SCT
15:59 29.1 °F 12.3 °F 30.16 in NW 3.8 mph 8.1 mph 49 % 0.00 in 98.0 W/m2 SCT
16:04 29.1 °F 12.3 °F 30.16 in West 6.3 mph 10.0 mph 49 % 0.00 in 86.0 W/m2 SCT
16:09 29.0 °F 12.2 °F 30.16 in West 7.7 mph 11.5 mph 49 % 0.00 in 81.0 W/m2 SCT
16:14 28.8 °F 12.5 °F 30.17 in WNW 9.3 mph 12.7 mph 50 % 0.00 in 62.0 W/m2 SCT
16:19 28.6 °F 12.3 °F 30.17 in West 7.3 mph 12.7 mph 50 % 0.00 in 56.0 W/m2 BKN
16:24 28.5 °F 12.2 °F 30.17 in West 8.4 mph 11.5 mph 50 % 0.00 in 56.0 W/m2 SCT
16:29 28.4 °F 12.1 °F 30.17 in WNW 9.9 mph 15.0 mph 50 % 0.00 in 46.0 W/m2 SCT
16:34 28.2 °F 11.9 °F 30.17 in WNW 11.0 mph 15.0 mph 50 % 0.00 in 37.0 W/m2 BKN
16:39 28.1 °F 11.4 °F 30.17 in West 5.6 mph 10.4 mph 49 % 0.00 in 30.0 W/m2 BKN
16:44 28.0 °F 11.7 °F 30.17 in West 4.5 mph 8.1 mph 50 % 0.00 in 28.0 W/m2 BKN
16:49 28.0 °F 11.7 °F 30.17 in West 8.5 mph 12.7 mph 50 % 0.00 in 25.0 W/m2 SCT
16:54 27.9 °F 11.6 °F 30.18 in WNW 7.4 mph 12.0 mph 50 % 0.00 in 19.0 W/m2 SCT
16:59 27.8 °F 12.0 °F 30.18 in WNW 5.1 mph 9.2 mph 51 % 0.00 in 16.0 W/m2 SCT
17:04 27.8 °F 12.0 °F 30.18 in WNW 8.9 mph 11.5 mph 51 % 0.00 in 11.0 W/m2 SCT
17:09 27.7 °F 11.9 °F 30.18 in West 7.6 mph 11.5 mph 51 % 0.00 in 5.0 W/m2 BKN
17:14 27.6 °F 12.2 °F 30.18 in West 6.8 mph 10.4 mph 52 % 0.00 in 5.0 W/m2 FEW
17:19 27.5 °F 12.2 °F 30.18 in SW 5.1 mph 6.9 mph 52 % 0.00 in 0.0 W/m2 OVC
17:24 27.5 °F 12.2 °F 30.18 in West 9.5 mph 15.0 mph 52 % 0.00 in 0.0 W/m2 OVC
17:29 27.3 °F 12.0 °F 30.19 in NW 6.8 mph 9.2 mph 52 % 0.00 in 0.0 W/m2 OVC
17:34 27.3 °F 12.0 °F 30.19 in West 7.0 mph 10.4 mph 52 % 0.00 in 0.0 W/m2 OVC
17:39 27.3 °F 12.0 °F 30.20 in WNW 5.1 mph 9.2 mph 52 % 0.00 in 0.0 W/m2 OVC
17:44 27.3 °F 11.5 °F 30.20 in WNW 6.4 mph 10.4 mph 51 % 0.00 in 0.0 W/m2 OVC
17:49 27.3 °F 11.5 °F 30.20 in WNW 8.1 mph 11.5 mph 51 % 0.00 in 0.0 W/m2 OVC
17:54 27.3 °F 11.5 °F 30.20 in West 3.8 mph 8.1 mph 51 % 0.00 in 0.0 W/m2 CLR
17:59 27.3 °F 12.0 °F 30.20 in West 4.8 mph 10.4 mph 52 % 0.00 in 0.0 W/m2 CLR
18:04 27.2 °F 11.9 °F 30.20 in West 4.0 mph 6.9 mph 52 % 0.00 in 0.0 W/m2 CLR
18:09 27.2 °F 12.3 °F 30.20 in WNW 4.6 mph 9.2 mph 53 % 0.00 in 0.0 W/m2 CLR
18:14 27.2 °F 11.9 °F 30.21 in West 3.6 mph 6.0 mph 52 % 0.00 in 0.0 W/m2 CLR
18:19 27.3 °F 12.0 °F 30.20 in WNW 5.5 mph 8.1 mph 52 % 0.00 in 0.0 W/m2 CLR
18:24 27.3 °F 12.0 °F 30.20 in NW 3.4 mph 3.5 mph 52 % 0.00 in 0.0 W/m2 CLR
18:29 27.3 °F 12.0 °F 30.21 in WNW 1.8 mph 4.6 mph 52 % 0.00 in 0.0 W/m2 CLR
18:34 27.3 °F 12.0 °F 30.21 in West 5.7 mph 6.9 mph 52 % 0.00 in 0.0 W/m2 CLR
18:39 27.2 °F 11.9 °F 30.21 in West 3.8 mph 9.2 mph 52 % 0.00 in 0.0 W/m2 CLR
18:44 27.2 °F 11.9 °F 30.21 in West 4.3 mph 10.4 mph 52 % 0.00 in 0.0 W/m2 CLR
18:49 27.2 °F 11.9 °F 30.21 in West 4.9 mph 5.8 mph 52 % 0.00 in 0.0 W/m2 CLR
18:54 27.2 °F 11.9 °F 30.21 in West 2.7 mph 6.0 mph 52 % 0.00 in 0.0 W/m2 CLR
18:59 27.2 °F 11.9 °F 30.21 in West 2.8 mph 6.0 mph 52 % 0.00 in 0.0 W/m2 CLR
19:04 27.3 °F 12.0 °F 30.21 in West 4.1 mph 8.1 mph 52 % 0.00 in 0.0 W/m2 CLR
19:09 27.3 °F 12.0 °F 30.21 in WSW 5.8 mph 9.0 mph 52 % 0.00 in 0.0 W/m2 CLR
19:14 27.3 °F 12.4 °F 30.22 in West 5.0 mph 9.0 mph 53 % 0.00 in 0.0 W/m2 CLR
19:19 27.3 °F 12.0 °F 30.22 in West 1.3 mph 3.5 mph 52 % 0.00 in 0.0 W/m2 CLR
19:24 27.3 °F 12.0 °F 30.22 in West 3.4 mph 8.1 mph 52 % 0.00 in 0.0 W/m2 CLR
19:30 27.4 °F 12.1 °F 30.22 in WNW 5.6 mph 6.9 mph 52 % 0.00 in 0.0 W/m2 CLR
19:35 27.4 °F 12.0 °F 30.22 in West 5.0 mph 9.0 mph 52 % 0.00 in 0.0 W/m2 CLR
19:40 27.3 °F 12.0 °F 30.22 in West 3.0 mph 7.0 mph 52 % 0.00 in 0.0 W/m2 CLR
19:45 27.3 °F 12.0 °F 30.23 in WNW 3.8 mph 8.1 mph 52 % 0.00 in 0.0 W/m2 CLR
19:50 27.3 °F 12.4 °F 30.23 in WNW 2.0 mph 6.0 mph 53 % 0.00 in 0.0 W/m2 CLR
19:55 27.3 °F 12.0 °F 30.23 in WNW 4.1 mph 9.2 mph 52 % 0.00 in 0.0 W/m2 CLR
20:00 27.4 °F 12.1 °F 30.23 in West 6.5 mph 11.5 mph 52 % 0.00 in 0.0 W/m2 CLR
20:05 27.4 °F 12.1 °F 30.23 in WNW 7.0 mph 10.0 mph 52 % 0.00 in 0.0 W/m2 CLR
20:10 27.5 °F 12.2 °F 30.23 in WNW 8.0 mph 13.0 mph 52 % 0.00 in 0.0 W/m2 CLR
20:15 27.5 °F 12.2 °F 30.23 in WNW 9.7 mph 13.8 mph 52 % 0.00 in 0.0 W/m2 CLR
20:20 27.5 °F 12.2 °F 30.24 in West 5.8 mph 13.8 mph 52 % 0.00 in 0.0 W/m2 CLR
20:25 27.5 °F 12.2 °F 30.24 in WNW 9.0 mph 14.0 mph 52 % 0.00 in 0.0 W/m2 CLR
20:30 27.5 °F 12.6 °F 30.24 in NW 11.9 mph 17.0 mph 53 % 0.00 in 0.0 W/m2 CLR
20:35 27.5 °F 12.6 °F 30.24 in WNW 7.4 mph 13.0 mph 53 % 0.00 in 0.0 W/m2 CLR
20:40 27.5 °F 12.6 °F 30.24 in WNW 11.4 mph 16.1 mph 53 % 0.00 in 0.0 W/m2 CLR
20:45 27.5 °F 13.0 °F 30.24 in WNW 11.3 mph 18.4 mph 54 % 0.00 in 0.0 W/m2 CLR
20:50 27.4 °F 12.9 °F 30.24 in NW 7.8 mph 12.7 mph 54 % 0.00 in 0.0 W/m2 CLR
20:55 27.3 °F 13.2 °F 30.24 in West 9.9 mph 15.0 mph 55 % 0.00 in 0.0 W/m2 CLR
21:00 27.1 °F 13.1 °F 30.24 in NW 6.1 mph 15.0 mph 55 % 0.00 in 0.0 W/m2 CLR
21:05 27.0 °F 13.0 °F 30.24 in WNW 7.8 mph 11.5 mph 55 % 0.00 in 0.0 W/m2 CLR
21:10 27.0 °F 13.0 °F 30.25 in West 9.8 mph 13.8 mph 55 % 0.00 in 0.0 W/m2 CLR
21:15 26.9 °F 12.9 °F 30.25 in West 9.5 mph 15.0 mph 55 % 0.00 in 0.0 W/m2 CLR
21:20 26.8 °F 13.2 °F 30.25 in NW 11.8 mph 16.1 mph 56 % 0.00 in 0.0 W/m2 CLR
21:25 26.6 °F 13.4 °F 30.25 in WNW 11.6 mph 18.4 mph 57 % 0.00 in 0.0 W/m2 CLR
21:30 26.4 °F 14.0 °F 30.25 in West 10.6 mph 17.0 mph 59 % 0.00 in 0.0 W/m2 CLR
21:35 26.1 °F 14.1 °F 30.26 in WNW 7.4 mph 11.5 mph 60 % 0.00 in 0.0 W/m2 CLR
21:40 26.0 °F 14.4 °F 30.26 in WNW 12.5 mph 17.3 mph 61 % 0.00 in 0.0 W/m2 CLR
21:45 25.8 °F 14.6 °F 30.26 in WNW 5.0 mph 9.2 mph 62 % 0.00 in 0.0 W/m2 CLR
21:50 25.5 °F 13.9 °F 30.26 in WNW 6.4 mph 12.7 mph 61 % 0.00 in 0.0 W/m2 CLR
21:55 25.4 °F 13.4 °F 30.26 in WNW 6.2 mph 10.4 mph 60 % 0.00 in 0.0 W/m2 CLR
22:00 25.3 °F 13.0 °F 30.27 in West 8.7 mph 16.0 mph 59 % 0.00 in 0.0 W/m2 CLR
22:05 25.2 °F 12.1 °F 30.27 in NW 8.6 mph 11.5 mph 57 % 0.00 in 0.0 W/m2 CLR
22:10 25.1 °F 10.8 °F 30.27 in WSW 7.9 mph 17.3 mph 54 % 0.00 in 0.0 W/m2 CLR
22:15 25.1 °F 10.3 °F 30.27 in NW 11.0 mph 16.1 mph 53 % 0.00 in 0.0 W/m2 CLR
22:20 25.0 °F 9.4 °F 30.27 in West 7.6 mph 17.3 mph 51 % 0.00 in 0.0 W/m2 CLR
22:25 25.0 °F 9.0 °F 30.28 in NW 11.8 mph 19.6 mph 50 % 0.00 in 0.0 W/m2 CLR
22:30 24.9 °F 8.9 °F 30.28 in WNW 8.4 mph 11.5 mph 50 % 0.00 in 0.0 W/m2 CLR
22:35 24.8 °F 8.8 °F 30.28 in West 7.6 mph 12.7 mph 50 % 0.00 in 0.0 W/m2 CLR
22:40 24.7 °F 8.7 °F 30.28 in WNW 6.7 mph 11.5 mph 50 % 0.00 in 0.0 W/m2 CLR
22:45 24.6 °F 8.6 °F 30.28 in WNW 4.2 mph 11.5 mph 50 % 0.00 in 0.0 W/m2 CLR
22:50 24.4 °F 8.4 °F 30.29 in WNW 4.4 mph 13.0 mph 50 % 0.00 in 0.0 W/m2 CLR
22:55 24.4 °F 7.9 °F 30.29 in WSW 6.5 mph 17.3 mph 49 % 0.00 in 0.0 W/m2 CLR
23:01 24.3 °F 7.9 °F 30.29 in WNW 3.9 mph 10.4 mph 49 % 0.00 in 0.0 W/m2 CLR
23:06 24.1 °F 7.7 °F 30.29 in WNW 3.0 mph 7.0 mph 49 % 0.00 in 0.0 W/m2 CLR
23:11 24.1 °F 7.7 °F 30.29 in NW 4.6 mph 11.5 mph 49 % 0.00 in 0.0 W/m2 CLR
23:16 24.1 °F 7.7 °F 30.29 in WNW 11.8 mph 24.2 mph 49 % 0.00 in 0.0 W/m2 CLR
23:21 24.2 °F 6.8 °F 30.29 in WNW 16.6 mph 23.0 mph 47 % 0.00 in 0.0 W/m2 CLR
23:26 24.3 °F 6.9 °F 30.30 in WNW 13.0 mph 19.6 mph 47 % 0.00 in 0.0 W/m2 CLR
23:31 24.2 °F 6.8 °F 30.30 in West 15.1 mph 19.6 mph 47 % 0.00 in 0.0 W/m2 CLR
23:36 24.0 °F 6.7 °F 30.29 in WNW 9.4 mph 19.6 mph 47 % 0.00 in 0.0 W/m2 CLR
23:41 23.9 °F 6.6 °F 30.29 in WNW 13.8 mph 22.0 mph 47 % 0.00 in 0.0 W/m2 CLR
23:46 23.8 °F 6.5 °F 30.30 in NW 14.8 mph 20.7 mph 47 % 0.00 in 0.0 W/m2 CLR
23:51 23.7 °F 6.4 °F 30.30 in NW 12.8 mph 21.0 mph 47 % 0.00 in 0.0 W/m2 CLR
23:56 23.6 °F 6.3 °F 30.30 in West 4.9 mph 18.4 mph 47 % 0.00 in 0.0 W/m2 CLR
Air Products Campus Weather
Compliments of Weather Underground - 3.5 mb